createdAt,value
2019-03-22T00:03:34.029Z,99897.75
2019-03-22T00:08:56.091Z,99901.31
2019-03-22T00:14:20.138Z,99894.75
2019-03-22T00:19:43.528Z,99883.92
2019-03-22T00:25:06.407Z,99877.16
2019-03-22T00:30:29.460Z,99874.39
2019-03-22T00:35:51.046Z,99873.07
2019-03-22T00:41:13.656Z,99871.61
2019-03-22T00:46:35.566Z,99874.69
2019-03-22T00:51:57.561Z,99860.45
2019-03-22T00:57:28.402Z,99860.54
2019-03-22T01:02:44.048Z,99872.55
2019-03-22T01:08:06.464Z,99871.69
2019-03-22T01:13:29.203Z,99858.36
2019-03-22T01:18:51.174Z,99863.96
2019-03-22T01:24:13.226Z,99873.34
2019-03-22T01:29:36.050Z,99862.09
2019-03-22T01:34:57.741Z,99858.30
2019-03-22T01:40:19.632Z,99855.67
2019-03-22T01:45:41.541Z,99849.66
2019-03-22T01:51:04.259Z,99854.08
2019-03-22T01:56:26.915Z,99842.92
2019-03-22T02:01:50.662Z,99840.14
2019-03-22T02:07:12.900Z,99849.22
2019-03-22T02:12:39.351Z,99853.23
2019-03-22T02:18:02.262Z,99848.92
2019-03-22T02:23:23.947Z,99844.12
2019-03-22T02:28:46.541Z,99846.20
2019-03-22T02:34:09.384Z,99846.50
2019-03-22T02:39:33.227Z,99840.58
2019-03-22T02:44:55.852Z,99842.38
2019-03-22T02:50:20.542Z,99843.50
2019-03-22T02:55:43.153Z,99849.77
2019-03-22T03:01:06.616Z,99825.09
2019-03-22T03:06:29.149Z,99817.91
2019-03-22T03:11:50.902Z,99819.21
2019-03-22T03:17:15.463Z,99822.16
2019-03-22T03:22:38.195Z,99819.84
2019-03-22T03:27:59.799Z,99824.36
2019-03-22T03:33:22.466Z,99819.37
2019-03-22T03:38:45.383Z,99821.27
2019-03-22T03:44:08.133Z,99817.83
2019-03-22T03:49:32.990Z,99830.07
2019-03-22T03:54:55.638Z,99840.08
2019-03-22T04:00:18.004Z,99846.30
2019-03-22T04:05:41.327Z,99840.22
2019-03-22T04:11:03.492Z,99845.52
2019-03-22T04:16:26.518Z,99843.63
2019-03-22T04:21:49.872Z,99845.97
2019-03-22T04:27:11.526Z,99842.95
2019-03-22T04:32:34.395Z,99850.64
2019-03-22T04:37:56.162Z,99851.55
2019-03-22T04:43:18.879Z,99852.91
2019-03-22T04:48:43.252Z,99859.57
2019-03-22T04:54:07.163Z,99859.37
2019-03-22T04:59:31.548Z,99860.05
2019-03-22T05:04:54.034Z,99860.39
2019-03-22T05:10:18.280Z,99862.33
2019-03-22T05:15:40.126Z,99870.32
2019-03-22T05:21:05.592Z,99864.91
2019-03-22T05:26:30.993Z,99867.36
2019-03-22T05:32:04.665Z,99871.78
2019-03-22T05:37:26.898Z,99860.44
2019-03-22T05:42:49.012Z,99863.16
2019-03-22T05:48:10.610Z,99857.25
2019-03-22T05:53:32.312Z,99862.81
2019-03-22T05:58:53.945Z,99871.97
2019-03-22T06:04:15.597Z,99867.73
2019-03-22T06:09:37.712Z,99866.06
2019-03-22T06:14:59.228Z,99863.48
2019-03-22T06:20:22.111Z,99867.25
2019-03-22T06:25:43.818Z,99860.73
2019-03-22T06:31:05.630Z,99859.27
2019-03-22T06:36:27.806Z,99864.93
2019-03-22T06:41:49.666Z,99854.20
2019-03-22T06:47:11.383Z,99859.18
2019-03-22T06:52:33.186Z,99850.41
2019-03-22T06:57:54.933Z,99851.56
2019-03-22T07:03:16.769Z,99840.58
2019-03-22T07:08:38.418Z,99839.41
2019-03-22T07:14:00.306Z,99835.89
2019-03-22T07:19:21.680Z,99834.57
2019-03-22T07:24:43.583Z,99838.99
2019-03-22T07:30:17.656Z,99833.70
2019-03-22T07:35:29.998Z,99832.86
2019-03-22T07:40:52.725Z,99838.76
2019-03-22T07:46:14.420Z,99832.91
2019-03-22T07:51:36.130Z,99831.23
2019-03-22T07:56:57.842Z,99833.67
2019-03-22T08:02:19.544Z,99818.06
2019-03-22T08:07:41.172Z,99818.47
2019-03-22T08:13:03.117Z,99809.66
2019-03-22T08:18:25.111Z,99797.72
2019-03-22T08:23:46.956Z,99793.24
2019-03-22T08:29:08.797Z,99789.13
2019-03-22T08:34:30.505Z,99786.59
2019-03-22T08:39:52.264Z,99783.88
2019-03-22T08:45:14.583Z,99775.49
2019-03-22T08:50:36.269Z,99766.95
2019-03-22T08:55:57.906Z,99760.97
2019-03-22T09:01:19.302Z,99763.05
2019-03-22T09:06:41.347Z,99749.80
2019-03-22T09:12:03.150Z,99728.36
2019-03-22T09:17:25.089Z,99725.38
2019-03-22T09:22:46.797Z,99722.94
2019-03-22T09:28:10.363Z,99714.48
2019-03-22T09:33:32.440Z,99706.23
2019-03-22T09:38:54.172Z,99702.38
2019-03-22T09:44:16.152Z,99695.23
2019-03-22T09:49:37.940Z,99697.70
2019-03-22T09:55:12.825Z,99688.81
2019-03-22T10:00:31.263Z,99690.15
2019-03-22T10:05:52.745Z,99678.50
2019-03-22T10:11:14.752Z,99673.43
2019-03-22T10:16:36.669Z,99669.69
2019-03-22T10:21:58.989Z,99661.44
2019-03-22T10:27:20.690Z,99663.11
2019-03-22T10:32:42.631Z,99654.36
2019-03-22T10:38:06.323Z,99639.61
2019-03-22T10:43:27.902Z,99634.97
2019-03-22T10:48:49.778Z,99623.34
2019-03-22T10:54:11.552Z,99613.80
2019-03-22T10:59:33.272Z,99601.97
2019-03-22T11:04:54.965Z,99613.61
2019-03-22T11:10:16.850Z,99594.70
2019-03-22T11:15:47.922Z,99591.28
2019-03-22T11:21:05.450Z,99583.82
2019-03-22T11:26:25.918Z,99575.95
2019-03-22T11:31:47.954Z,99568.66
2019-03-22T11:37:09.545Z,99561.63
2019-03-22T11:42:31.160Z,99554.23
2019-03-22T11:47:53.227Z,99543.51
2019-03-22T11:53:14.760Z,99533.17
2019-03-22T11:58:36.499Z,99526.70
2019-03-22T12:03:58.268Z,99520.58
2019-03-22T12:09:20.142Z,99516.97
2019-03-22T12:14:42.159Z,99498.48
2019-03-22T12:20:06.263Z,99503.13
2019-03-22T12:25:27.806Z,99490.55
2019-03-22T12:30:49.510Z,99485.77
2019-03-22T12:36:10.985Z,99478.67
2019-03-22T12:41:33.050Z,99475.23
2019-03-22T12:46:54.723Z,99463.64
2019-03-22T12:52:16.394Z,99451.63
2019-03-22T12:57:41.086Z,99449.95
2019-03-22T13:03:03.353Z,99440.84
2019-03-22T13:08:28.319Z,99448.14
2019-03-22T13:13:50.445Z,99436.24
2019-03-22T13:19:12.443Z,99429.87
2019-03-22T13:24:34.366Z,99417.58
2019-03-22T13:29:58.226Z,99404.13
2019-03-22T13:35:20.239Z,99403.02
2019-03-22T13:40:42.496Z,99404.70
2019-03-22T13:46:04.458Z,99399.00
2019-03-22T13:51:26.263Z,99397.16
2019-03-22T13:56:48.284Z,99392.20
2019-03-22T14:02:09.783Z,99381.14
2019-03-22T14:07:31.757Z,99386.74
2019-03-22T14:12:53.777Z,99385.58
2019-03-22T14:18:15.831Z,99378.05
2019-03-22T14:23:38.138Z,99373.56
2019-03-22T14:28:59.802Z,99377.89
2019-03-22T14:34:22.049Z,99372.02
2019-03-22T14:39:43.659Z,99364.98
2019-03-22T14:45:05.281Z,99371.37
2019-03-22T14:50:26.853Z,99361.59
2019-03-22T14:55:48.556Z,99356.01
2019-03-22T15:01:10.270Z,99352.55
2019-03-22T15:06:33.296Z,99350.89
2019-03-22T15:11:54.952Z,99354.67
2019-03-22T15:17:54.340Z,99355.86
2019-03-22T15:23:36.365Z,99361.83
2019-03-22T15:29:18.061Z,99365.96
2019-03-22T15:34:59.573Z,99363.52
2019-03-22T15:40:21.264Z,99358.31
2019-03-22T15:45:43.135Z,99374.73
2019-03-22T15:51:04.603Z,99370.75
2019-03-22T15:56:26.201Z,99372.08
2019-03-22T16:01:48.312Z,99368.74
2019-03-22T16:07:09.826Z,99370.28
2019-03-22T16:12:31.586Z,99376.27
2019-03-22T16:17:53.163Z,99366.71
2019-03-22T16:23:14.965Z,99366.78
2019-03-22T16:28:36.815Z,99376.94
2019-03-22T16:33:58.512Z,99371.69
2019-03-22T16:39:20.251Z,99380.19
2019-03-22T16:44:42.305Z,99378.89
2019-03-22T16:50:09.375Z,99379.02
2019-03-22T16:55:31.109Z,99379.98
2019-03-22T17:00:52.981Z,99379.25
2019-03-22T17:06:14.607Z,99374.50
2019-03-22T17:11:36.891Z,99373.53
2019-03-22T17:16:58.761Z,99371.72
2019-03-22T17:22:20.458Z,99368.00
2019-03-22T17:27:42.208Z,99380.45
2019-03-22T17:33:04.478Z,99381.08
2019-03-22T17:38:26.106Z,99387.48
2019-03-22T17:43:49.163Z,99383.95
2019-03-22T17:49:10.875Z,99377.08
2019-03-22T17:54:33.112Z,99373.33
2019-03-22T17:59:54.829Z,99383.16
2019-03-22T18:05:16.759Z,99389.16
2019-03-22T18:10:38.288Z,99384.52
2019-03-22T18:16:00.076Z,99386.26
2019-03-22T18:21:22.018Z,99387.02
2019-03-22T18:26:43.851Z,99381.78
2019-03-22T18:32:05.874Z,99385.31
2019-03-22T18:37:27.828Z,99387.47
2019-03-22T18:42:49.665Z,99395.21
2019-03-22T18:48:11.339Z,99387.32
2019-03-22T18:53:33.134Z,99383.08
2019-03-22T18:58:54.538Z,99382.92
2019-03-22T19:04:16.262Z,99382.50
2019-03-22T19:09:38.346Z,99398.30
2019-03-22T19:15:00.381Z,99394.98
2019-03-22T19:20:22.541Z,99394.89
2019-03-22T19:25:44.610Z,99398.03
2019-03-22T19:31:07.054Z,99386.05
2019-03-22T19:36:29.381Z,99390.07
2019-03-22T19:41:51.181Z,99408.81
2019-03-22T19:47:13.453Z,99394.62
2019-03-22T19:52:35.485Z,99397.38
2019-03-22T19:57:57.816Z,99396.30
2019-03-22T20:03:19.913Z,99403.27
2019-03-22T20:08:41.863Z,99399.23
2019-03-22T20:14:03.532Z,99407.51
2019-03-22T20:19:25.710Z,99407.36
2019-03-22T20:24:49.149Z,99406.45
2019-03-22T20:30:12.741Z,99404.75
2019-03-22T20:35:35.695Z,99407.77
2019-03-22T20:40:59.854Z,99403.44
2019-03-22T20:46:21.730Z,99393.92
2019-03-22T20:51:43.712Z,99395.44
2019-03-22T20:57:05.572Z,99390.61
2019-03-22T21:02:27.247Z,99379.78
2019-03-22T21:07:53.129Z,99389.50
2019-03-22T21:13:15.037Z,99383.09
2019-03-22T21:18:36.548Z,99398.35
2019-03-22T21:23:59.315Z,99401.57
2019-03-22T21:29:21.203Z,99394.56
2019-03-22T21:34:44.114Z,99398.48
2019-03-22T21:40:06.880Z,99389.73
2019-03-22T21:45:29.400Z,99402.45
2019-03-22T21:50:51.038Z,99392.20
2019-03-22T21:56:12.814Z,99391.50
2019-03-22T22:01:34.601Z,99399.63
2019-03-22T22:06:56.474Z,99395.80
2019-03-22T22:12:18.126Z,99384.42
2019-03-22T22:17:40.199Z,99378.17
2019-03-22T22:23:02.252Z,99384.81
2019-03-22T22:28:23.683Z,99378.86
2019-03-22T22:33:47.796Z,99388.70
2019-03-22T22:39:09.812Z,99389.48
2019-03-22T22:44:31.262Z,99394.36
2019-03-22T22:49:53.101Z,99385.81
2019-03-22T22:55:14.718Z,99375.53
2019-03-22T23:00:36.445Z,99371.74
2019-03-22T23:06:09.109Z,99367.36
2019-03-22T23:11:22.357Z,99374.99
2019-03-22T23:16:44.171Z,99355.23
2019-03-22T23:22:05.761Z,99363.85
2019-03-22T23:27:27.373Z,99371.02
2019-03-22T23:32:49.277Z,99356.90
2019-03-22T23:38:11.722Z,99357.58
2019-03-22T23:43:33.594Z,99355.73
2019-03-22T23:48:55.395Z,99348.30
2019-03-22T23:54:17.078Z,99341.68
2019-03-22T23:59:39.196Z,99339.03
